createdAt,value
2023-02-16T00:01:52.439Z,80.90
2023-02-16T00:04:24.538Z,80.80
2023-02-16T00:06:53.461Z,81.00
2023-02-16T00:09:22.763Z,80.90
2023-02-16T00:12:10.151Z,80.80
2023-02-16T00:14:39.894Z,80.80
2023-02-16T00:17:08.459Z,80.90
2023-02-16T00:19:40.067Z,81.00
2023-02-16T00:22:09.216Z,81.20
2023-02-16T00:24:37.745Z,81.10
2023-02-16T00:27:14.408Z,81.10
2023-02-16T00:29:44.771Z,81.40
2023-02-16T00:32:14.257Z,81.10
2023-02-16T00:34:44.632Z,81.10
2023-02-16T00:37:14.140Z,81.20
2023-02-16T00:39:43.909Z,81.20
2023-02-16T00:42:18.200Z,81.00
2023-02-16T00:44:49.088Z,81.10
2023-02-16T00:47:21.092Z,81.20
2023-02-16T00:49:53.080Z,81.20
2023-02-16T00:52:34.858Z,81.20
2023-02-16T00:55:05.317Z,81.60
2023-02-16T00:57:37.668Z,81.40
2023-02-16T01:00:14.779Z,81.60
2023-02-16T01:02:43.652Z,81.60
2023-02-16T01:05:14.197Z,81.60
2023-02-16T01:08:00.179Z,81.40
2023-02-16T01:10:46.247Z,81.30
2023-02-16T01:13:15.362Z,81.30
2023-02-16T01:15:44.167Z,81.40
2023-02-16T01:18:15.134Z,81.40
2023-02-16T01:20:45.591Z,81.60
2023-02-16T01:23:14.494Z,81.60
2023-02-16T01:25:43.703Z,81.50
2023-02-16T01:28:19.843Z,81.40
2023-02-16T01:30:48.314Z,81.50
2023-02-16T01:33:16.598Z,81.30
2023-02-16T01:35:46.721Z,81.20
2023-02-16T01:38:19.488Z,81.20
2023-02-16T01:40:53.642Z,81.30
2023-02-16T01:43:25.869Z,81.30
2023-02-16T01:46:00.986Z,81.20
2023-02-16T01:48:30.774Z,81.30
2023-02-16T01:51:07.087Z,81.10
2023-02-16T01:53:40.012Z,81.20
2023-02-16T01:56:19.994Z,81.30
2023-02-16T01:58:51.672Z,81.50
2023-02-16T02:01:41.064Z,81.40
2023-02-16T02:04:35.015Z,81.80
2023-02-16T02:07:04.860Z,81.70
2023-02-16T02:09:39.252Z,81.50
2023-02-16T02:12:23.495Z,81.60
2023-02-16T02:14:51.766Z,81.50
2023-02-16T02:17:22.479Z,81.40
2023-02-16T02:20:00.320Z,81.60
2023-02-16T02:23:23.178Z,81.90
2023-02-16T02:26:34.751Z,82.10
2023-02-16T02:29:20.329Z,81.70
2023-02-16T02:31:58.625Z,81.60
2023-02-16T02:34:37.406Z,81.40
2023-02-16T02:37:12.175Z,81.20
2023-02-16T02:39:50.430Z,81.20
2023-02-16T02:42:26.344Z,81.40
2023-02-16T02:44:59.443Z,81.30
2023-02-16T02:47:39.555Z,81.20
2023-02-16T02:50:40.082Z,81.10
2023-02-16T02:53:12.615Z,81.10
2023-02-16T02:56:02.600Z,81.20
2023-02-16T02:58:51.438Z,81.40
2023-02-16T03:01:23.332Z,81.40
2023-02-16T03:03:54.808Z,81.60
2023-02-16T03:06:27.488Z,81.70
2023-02-16T03:08:59.625Z,81.70
2023-02-16T03:11:48.284Z,81.90
2023-02-16T03:14:19.672Z,81.80
2023-02-16T03:17:06.052Z,81.50
2023-02-16T03:19:51.724Z,81.40
2023-02-16T03:22:37.438Z,81.40
2023-02-16T03:25:23.246Z,81.40
2023-02-16T03:28:09.696Z,81.50
2023-02-16T03:30:38.586Z,81.70
2023-02-16T03:33:08.341Z,81.60
2023-02-16T03:35:36.990Z,81.50
2023-02-16T03:38:05.911Z,81.40
2023-02-16T03:40:35.686Z,81.50
2023-02-16T03:43:07.151Z,81.60
2023-02-16T03:45:37.416Z,81.60
2023-02-16T03:48:07.658Z,81.50
2023-02-16T03:50:36.045Z,81.50
2023-02-16T03:53:13.058Z,81.40
2023-02-16T03:55:43.395Z,81.60
2023-02-16T03:58:13.879Z,81.60
2023-02-16T04:00:42.693Z,81.60
2023-02-16T04:03:12.528Z,81.80
2023-02-16T04:05:41.079Z,81.90
2023-02-16T04:08:10.221Z,81.70
2023-02-16T04:10:39.146Z,81.80
2023-02-16T04:13:06.964Z,81.80
2023-02-16T04:15:35.425Z,81.70
2023-02-16T04:18:03.801Z,81.60
2023-02-16T04:20:35.376Z,81.70
2023-02-16T04:23:04.164Z,81.80
2023-02-16T04:25:32.628Z,81.70
2023-02-16T04:28:00.887Z,81.60
2023-02-16T04:30:31.680Z,81.80
2023-02-16T04:33:00.255Z,82.00
2023-02-16T04:35:28.837Z,81.90
2023-02-16T04:37:58.405Z,82.00
2023-02-16T04:40:26.707Z,82.00
2023-02-16T04:42:54.992Z,82.00
2023-02-16T04:45:23.192Z,82.00
2023-02-16T04:47:51.376Z,82.10
2023-02-16T04:50:19.654Z,82.10
2023-02-16T04:52:47.922Z,82.00
2023-02-16T04:55:17.591Z,81.90
2023-02-16T04:57:45.781Z,81.90
2023-02-16T05:00:14.880Z,81.70
2023-02-16T05:02:43.070Z,81.70
2023-02-16T05:05:11.262Z,81.70
2023-02-16T05:07:39.486Z,81.90
2023-02-16T05:10:08.964Z,82.00
2023-02-16T05:12:56.063Z,81.80
2023-02-16T05:15:24.286Z,81.90
2023-02-16T05:17:52.530Z,81.80
2023-02-16T05:20:40.745Z,81.80
2023-02-16T05:23:08.998Z,82.00
2023-02-16T05:25:37.197Z,82.10
2023-02-16T05:28:06.994Z,82.10
2023-02-16T05:30:35.529Z,82.10
2023-02-16T05:33:03.757Z,82.00
2023-02-16T05:35:32.171Z,82.00
2023-02-16T05:38:00.359Z,82.00
2023-02-16T05:40:28.570Z,82.00
2023-02-16T05:42:56.877Z,82.10
2023-02-16T05:45:26.472Z,82.00
2023-02-16T05:47:54.779Z,82.00
2023-02-16T05:50:22.984Z,81.90
2023-02-16T05:52:51.212Z,82.10
2023-02-16T05:55:19.612Z,82.20
2023-02-16T05:57:47.870Z,82.10
2023-02-16T06:00:17.327Z,82.10
2023-02-16T06:02:47.096Z,82.20
2023-02-16T06:05:15.351Z,82.40
2023-02-16T06:07:43.615Z,82.10
2023-02-16T06:10:12.161Z,82.20
2023-02-16T06:12:40.309Z,82.30
2023-02-16T06:15:09.147Z,82.30
2023-02-16T06:17:37.498Z,82.40
2023-02-16T06:20:08.480Z,82.40
2023-02-16T06:22:36.670Z,82.60
2023-02-16T06:25:04.926Z,82.50
2023-02-16T06:27:33.168Z,82.80
2023-02-16T06:30:02.586Z,82.80
2023-02-16T06:32:30.866Z,82.80
2023-02-16T06:34:59.220Z,82.70
2023-02-16T06:37:28.870Z,82.70
2023-02-16T06:39:57.095Z,82.80
2023-02-16T06:42:25.350Z,82.80
2023-02-16T06:44:53.548Z,82.70
2023-02-16T06:47:21.806Z,82.60
2023-02-16T06:49:50.044Z,82.70
2023-02-16T06:52:18.412Z,82.50
2023-02-16T06:54:47.996Z,82.40
2023-02-16T06:57:16.249Z,82.40
2023-02-16T06:59:44.474Z,82.30
2023-02-16T07:02:12.928Z,82.50
2023-02-16T07:04:41.108Z,82.60
2023-02-16T07:07:09.428Z,82.50
2023-02-16T07:09:37.943Z,82.60
2023-02-16T07:12:08.307Z,82.40
2023-02-16T07:14:36.491Z,82.50
2023-02-16T07:17:04.904Z,82.30
2023-02-16T07:19:33.855Z,82.40
2023-02-16T07:22:02.681Z,82.60
2023-02-16T07:24:30.903Z,82.60
2023-02-16T07:26:59.149Z,82.40
2023-02-16T07:29:28.747Z,82.40
2023-02-16T07:31:57.824Z,82.50
2023-02-16T07:34:26.201Z,82.50
2023-02-16T07:36:54.389Z,82.60
2023-02-16T07:39:22.665Z,82.60
2023-02-16T07:41:50.966Z,82.60
2023-02-16T07:44:19.272Z,82.50
2023-02-16T07:46:48.938Z,82.50
2023-02-16T07:49:17.145Z,82.50
2023-02-16T07:51:45.353Z,83.10
2023-02-16T07:54:13.891Z,82.30
2023-02-16T07:56:42.087Z,82.50
2023-02-16T07:59:10.266Z,82.50
2023-02-16T08:01:40.051Z,82.50
2023-02-16T08:04:09.731Z,82.50
2023-02-16T08:06:37.953Z,82.50
2023-02-16T08:09:06.190Z,82.40
2023-02-16T08:11:34.729Z,82.50
2023-02-16T08:14:03.013Z,82.60
2023-02-16T08:16:31.519Z,82.80
2023-02-16T08:19:01.311Z,82.90
2023-02-16T08:21:32.948Z,82.90
2023-02-16T08:24:03.311Z,82.70
2023-02-16T08:26:36.883Z,82.60
2023-02-16T08:29:06.425Z,82.80
2023-02-16T08:31:38.310Z,82.90
2023-02-16T08:34:07.402Z,83.10
2023-02-16T08:36:40.098Z,83.00
2023-02-16T08:39:11.241Z,82.90
2023-02-16T08:41:40.121Z,82.90
2023-02-16T08:44:09.840Z,82.90
2023-02-16T08:46:40.354Z,83.00
2023-02-16T08:49:09.690Z,83.00
2023-02-16T08:51:42.580Z,83.10
2023-02-16T08:54:14.685Z,83.20
2023-02-16T08:56:46.123Z,83.00
2023-02-16T08:59:15.669Z,82.90
2023-02-16T09:01:44.971Z,82.90
2023-02-16T09:04:13.435Z,82.80
2023-02-16T09:06:45.141Z,82.80
2023-02-16T09:09:14.503Z,82.90
2023-02-16T09:11:42.872Z,82.60
2023-02-16T09:14:11.812Z,82.70
2023-02-16T09:16:45.427Z,82.70
2023-02-16T09:19:15.966Z,82.80
2023-02-16T09:21:46.883Z,82.80
2023-02-16T09:24:16.072Z,82.70
2023-02-16T09:26:44.802Z,82.60
2023-02-16T09:29:14.148Z,82.70
2023-02-16T09:31:44.445Z,82.80
2023-02-16T09:34:17.722Z,82.70
2023-02-16T09:36:47.839Z,82.70
2023-02-16T09:39:17.662Z,82.70
2023-02-16T09:42:03.352Z,82.60
2023-02-16T09:44:47.401Z,83.00
2023-02-16T09:47:23.563Z,82.80
2023-02-16T09:49:52.909Z,82.70
2023-02-16T09:52:30.953Z,82.60
2023-02-16T09:55:00.733Z,82.60
2023-02-16T09:57:47.466Z,82.50
2023-02-16T10:00:27.703Z,82.80
2023-02-16T10:03:02.767Z,82.90
2023-02-16T10:05:35.190Z,82.80
2023-02-16T10:08:09.518Z,83.00
2023-02-16T10:10:48.145Z,83.10
2023-02-16T10:13:23.790Z,83.30
2023-02-16T10:15:54.135Z,82.90
2023-02-16T10:18:29.319Z,82.60
2023-02-16T10:21:00.007Z,82.40
2023-02-16T10:23:41.578Z,82.90
2023-02-16T10:26:18.502Z,82.30
2023-02-16T10:28:48.708Z,82.20
2023-02-16T10:31:25.036Z,82.30
2023-02-16T10:34:15.561Z,82.60
2023-02-16T10:37:05.742Z,82.80
2023-02-16T10:39:42.498Z,82.60
2023-02-16T10:42:20.733Z,82.40
2023-02-16T10:44:57.128Z,82.30
2023-02-16T10:47:32.993Z,82.30
2023-02-16T10:50:01.451Z,82.40
2023-02-16T10:52:34.956Z,82.30
2023-02-16T10:55:04.781Z,82.30
2023-02-16T10:57:34.498Z,82.30
2023-02-16T11:00:06.959Z,82.30
2023-02-16T11:02:39.419Z,82.30
2023-02-16T11:05:32.210Z,82.40
2023-02-16T11:08:02.613Z,82.50
2023-02-16T11:10:50.515Z,82.20
2023-02-16T11:13:31.717Z,82.40
2023-02-16T11:16:04.222Z,82.50
2023-02-16T11:18:37.930Z,82.20
2023-02-16T11:21:07.960Z,82.20
2023-02-16T11:23:37.765Z,82.00
2023-02-16T11:26:21.680Z,82.00
2023-02-16T11:28:51.420Z,82.00
2023-02-16T11:31:25.490Z,81.90
2023-02-16T11:34:00.243Z,82.00
2023-02-16T11:36:35.100Z,82.00
2023-02-16T11:39:07.764Z,82.00
2023-02-16T11:41:37.801Z,82.00
2023-02-16T11:44:07.059Z,81.90
2023-02-16T11:46:42.445Z,82.10
2023-02-16T11:49:22.835Z,82.40
2023-02-16T11:51:51.180Z,82.50
2023-02-16T11:54:19.749Z,82.10
2023-02-16T11:57:03.344Z,82.20
2023-02-16T11:59:37.279Z,82.50
2023-02-16T12:02:36.361Z,82.00
2023-02-16T12:05:19.344Z,82.60
2023-02-16T12:07:54.335Z,81.90
2023-02-16T12:10:29.907Z,81.90
2023-02-16T12:13:05.175Z,81.90
2023-02-16T12:15:42.396Z,81.70
2023-02-16T12:18:25.699Z,81.70
2023-02-16T12:21:00.017Z,81.60
2023-02-16T12:23:36.517Z,81.60
2023-02-16T12:26:28.570Z,81.50
2023-02-16T12:29:08.492Z,81.50
2023-02-16T12:31:54.469Z,81.30
2023-02-16T12:34:29.730Z,81.20
2023-02-16T12:37:04.664Z,81.00
2023-02-16T12:39:40.400Z,80.80
2023-02-16T12:42:30.846Z,80.70
2023-02-16T12:45:05.884Z,80.80
2023-02-16T12:47:37.940Z,81.10
2023-02-16T12:50:15.991Z,81.70
2023-02-16T12:52:48.263Z,81.00
2023-02-16T12:55:22.159Z,80.80
2023-02-16T12:57:59.583Z,80.50
2023-02-16T13:00:38.977Z,80.20
2023-02-16T13:03:18.371Z,80.10
2023-02-16T13:05:52.332Z,79.90
2023-02-16T13:08:31.243Z,79.90
2023-02-16T13:11:08.604Z,79.70
2023-02-16T13:13:37.801Z,79.60
2023-02-16T13:16:29.179Z,79.50
2023-02-16T13:18:58.821Z,79.40
2023-02-16T13:24:45.601Z,79.90
2023-02-16T13:25:46.498Z,79.70
2023-02-16T13:27:25.368Z,80.10
2023-02-16T13:30:23.717Z,80.10
2023-02-16T13:33:14.270Z,80.00
2023-02-16T13:36:15.948Z,79.90
2023-02-16T13:39:14.345Z,79.70
2023-02-16T13:42:07.599Z,79.50
2023-02-16T13:44:39.950Z,79.40
2023-02-16T13:47:12.749Z,79.50
2023-02-16T13:49:43.633Z,79.50
2023-02-16T13:52:23.674Z,79.40
2023-02-16T13:54:52.169Z,79.40
2023-02-16T13:58:00.269Z,79.30
2023-02-16T14:00:32.326Z,79.00
2023-02-16T14:03:04.153Z,79.10
2023-02-16T14:05:36.593Z,79.00
2023-02-16T14:08:27.563Z,79.10
2023-02-16T14:11:15.821Z,79.10
2023-02-16T14:13:51.652Z,79.00
2023-02-16T14:16:34.768Z,79.10
2023-02-16T14:19:18.866Z,79.10
2023-02-16T14:21:50.902Z,79.00
2023-02-16T14:24:33.281Z,79.00
2023-02-16T14:27:03.301Z,79.00
2023-02-16T14:29:33.199Z,79.10
2023-02-16T14:32:07.319Z,79.10
2023-02-16T14:34:41.277Z,79.30
2023-02-16T14:37:36.794Z,79.40
2023-02-16T14:40:18.184Z,80.40
2023-02-16T14:42:53.776Z,79.60
2023-02-16T14:45:52.008Z,79.50
2023-02-16T14:48:35.831Z,79.70
2023-02-16T14:51:26.664Z,79.60
2023-02-16T14:54:30.446Z,79.80
2023-02-16T14:57:03.505Z,79.80
2023-02-16T14:59:35.263Z,79.60
2023-02-16T15:02:25.933Z,79.60
2023-02-16T15:04:54.217Z,79.80
2023-02-16T15:07:23.469Z,79.50
2023-02-16T15:09:57.529Z,79.50
2023-02-16T15:12:32.693Z,79.50
2023-02-16T15:15:03.605Z,79.30
2023-02-16T15:17:35.686Z,79.10
2023-02-16T15:20:10.663Z,79.00
2023-02-16T15:22:44.331Z,78.90
2023-02-16T15:25:23.781Z,78.90
2023-02-16T15:28:00.313Z,78.90
2023-02-16T15:30:31.077Z,78.80
2023-02-16T15:33:02.517Z,78.80
2023-02-16T15:35:35.988Z,78.80
2023-02-16T15:38:10.895Z,78.80
2023-02-16T15:40:39.572Z,78.80
2023-02-16T15:43:19.742Z,78.80
2023-02-16T15:45:52.655Z,78.80
2023-02-16T15:48:29.389Z,78.80
2023-02-16T15:51:02.711Z,78.80
2023-02-16T15:53:34.852Z,78.80
2023-02-16T15:56:07.169Z,79.00
2023-02-16T15:58:36.946Z,78.80
2023-02-16T16:01:05.617Z,78.70
2023-02-16T16:03:34.316Z,78.70
2023-02-16T16:06:06.496Z,78.70
2023-02-16T16:08:35.438Z,78.70
2023-02-16T16:11:04.115Z,78.70
2023-02-16T16:13:33.699Z,78.60
2023-02-16T16:16:04.837Z,78.60
2023-02-16T16:18:43.354Z,78.60
2023-02-16T16:21:20.269Z,78.70
2023-02-16T16:23:59.931Z,78.80
2023-02-16T16:26:29.848Z,78.80
2023-02-16T16:28:58.176Z,78.80
2023-02-16T16:31:40.733Z,78.80
2023-02-16T16:34:11.183Z,78.80
2023-02-16T16:36:45.696Z,78.80
2023-02-16T16:39:26.556Z,78.70
2023-02-16T16:42:25.241Z,78.70
2023-02-16T16:45:07.619Z,78.80
2023-02-16T16:47:41.766Z,78.80
2023-02-16T16:50:32.751Z,78.70
2023-02-16T16:53:01.947Z,78.70
2023-02-16T16:55:35.613Z,78.70
2023-02-16T16:58:06.563Z,78.70
2023-02-16T17:00:36.744Z,78.60
2023-02-16T17:03:08.354Z,78.70
2023-02-16T17:05:39.942Z,78.70
2023-02-16T17:08:08.352Z,78.70
2023-02-16T17:10:37.827Z,78.70
2023-02-16T17:13:06.441Z,78.70
2023-02-16T17:15:42.371Z,78.60
2023-02-16T17:18:17.965Z,78.70
2023-02-16T17:20:46.999Z,78.70
2023-02-16T17:23:17.543Z,78.70
2023-02-16T17:25:45.773Z,78.70
2023-02-16T17:28:15.659Z,78.60
2023-02-16T17:30:44.347Z,78.60
2023-02-16T17:33:14.368Z,78.60
2023-02-16T17:35:44.345Z,78.70
2023-02-16T17:38:14.739Z,78.70
2023-02-16T17:40:44.461Z,78.70
2023-02-16T17:43:14.018Z,78.80
2023-02-16T17:45:42.817Z,78.80
2023-02-16T17:48:19.237Z,78.90
2023-02-16T17:50:47.491Z,79.00
2023-02-16T17:53:17.446Z,79.00
2023-02-16T17:55:46.706Z,79.00
2023-02-16T17:58:15.954Z,79.00
2023-02-16T18:00:44.858Z,78.80
2023-02-16T18:03:14.664Z,78.70
2023-02-16T18:05:43.050Z,78.60
2023-02-16T18:08:13.080Z,78.50
2023-02-16T18:10:44.017Z,78.50
2023-02-16T18:13:13.392Z,78.50
2023-02-16T18:15:45.193Z,78.50
2023-02-16T18:18:16.109Z,78.50
2023-02-16T18:20:44.880Z,78.50
2023-02-16T18:23:13.150Z,78.60
2023-02-16T18:25:43.480Z,78.60
2023-02-16T18:28:15.271Z,78.70
2023-02-16T18:30:43.506Z,78.70
2023-02-16T18:33:11.770Z,78.70
2023-02-16T18:35:41.734Z,78.70
2023-02-16T18:38:09.941Z,78.60
2023-02-16T18:40:38.214Z,78.70
2023-02-16T18:43:10.706Z,78.70
2023-02-16T18:45:39.755Z,79.50
2023-02-16T18:48:08.607Z,79.00
2023-02-16T18:50:37.012Z,78.70
2023-02-16T18:53:06.879Z,78.80
2023-02-16T18:55:35.667Z,78.90
2023-02-16T18:58:07.712Z,79.00
2023-02-16T19:00:36.449Z,79.10
2023-02-16T19:03:04.797Z,79.10
2023-02-16T19:05:33.702Z,79.10
2023-02-16T19:08:01.879Z,79.10
2023-02-16T19:10:31.585Z,79.00
2023-02-16T19:13:01.234Z,79.10
2023-02-16T19:15:30.382Z,79.10
2023-02-16T19:17:59.751Z,79.20
2023-02-16T19:20:29.646Z,79.30
2023-02-16T19:22:58.016Z,79.20
2023-02-16T19:25:26.869Z,79.20
2023-02-16T19:27:56.535Z,79.20
2023-02-16T19:30:26.151Z,79.30
2023-02-16T19:32:54.403Z,79.40
2023-02-16T19:35:22.664Z,79.40
2023-02-16T19:37:51.742Z,79.30
2023-02-16T19:40:20.390Z,79.40
2023-02-16T19:42:48.788Z,79.50
2023-02-16T19:45:18.586Z,79.50
2023-02-16T19:47:46.816Z,80.20
2023-02-16T19:50:15.011Z,79.60
2023-02-16T19:52:43.210Z,79.60
2023-02-16T19:55:11.770Z,79.70
2023-02-16T19:57:40.027Z,79.80
2023-02-16T20:00:11.574Z,79.90
2023-02-16T20:02:41.409Z,79.80
2023-02-16T20:05:11.205Z,79.90
2023-02-16T20:07:39.506Z,79.80
2023-02-16T20:10:09.664Z,79.80
2023-02-16T20:12:38.022Z,79.80
2023-02-16T20:15:06.920Z,79.70
2023-02-16T20:17:35.152Z,79.60
2023-02-16T20:20:05.374Z,79.60
2023-02-16T20:22:33.576Z,79.50
2023-02-16T20:25:02.378Z,79.50
2023-02-16T20:27:30.638Z,79.40
2023-02-16T20:29:58.914Z,79.50
2023-02-16T20:32:28.233Z,79.50
2023-02-16T20:34:56.475Z,79.60
2023-02-16T20:37:26.335Z,79.70
2023-02-16T20:39:54.538Z,79.70
2023-02-16T20:42:22.768Z,79.60
2023-02-16T20:44:50.974Z,79.50
2023-02-16T20:47:19.295Z,79.50
2023-02-16T20:49:47.742Z,79.50
2023-02-16T20:52:15.971Z,79.50
2023-02-16T20:54:45.572Z,79.70
2023-02-16T20:57:26.030Z,79.70
2023-02-16T20:59:54.667Z,79.80
2023-02-16T21:02:22.905Z,79.90
2023-02-16T21:04:51.208Z,80.00
2023-02-16T21:07:19.433Z,80.10
2023-02-16T21:09:49.020Z,80.20
2023-02-16T21:12:17.322Z,80.20
2023-02-16T21:14:45.502Z,80.20
2023-02-16T21:17:13.784Z,80.30
2023-02-16T21:19:42.126Z,80.20
2023-02-16T21:22:10.608Z,80.20
2023-02-16T21:24:40.762Z,80.00
2023-02-16T21:27:11.052Z,80.00
2023-02-16T21:29:39.800Z,79.90
2023-02-16T21:32:08.039Z,79.80
2023-02-16T21:34:36.963Z,79.80
2023-02-16T21:37:05.499Z,79.90
2023-02-16T21:39:50.997Z,80.00
2023-02-16T21:42:20.639Z,80.00
2023-02-16T21:45:08.875Z,80.10
2023-02-16T21:47:54.590Z,80.10
2023-02-16T21:50:23.659Z,80.10
2023-02-16T21:52:52.409Z,80.00
2023-02-16T21:55:38.152Z,79.90
2023-02-16T21:58:08.319Z,79.90
2023-02-16T22:00:36.977Z,79.90
2023-02-16T22:03:06.304Z,80.00
2023-02-16T22:05:36.053Z,80.00
2023-02-16T22:08:04.509Z,79.90
2023-02-16T22:10:32.717Z,79.80
2023-02-16T22:13:01.038Z,79.70
2023-02-16T22:15:30.789Z,79.70
2023-02-16T22:17:58.965Z,79.80
2023-02-16T22:20:27.169Z,79.90
2023-02-16T22:22:55.479Z,79.80
2023-02-16T22:25:23.759Z,79.80
2023-02-16T22:27:52.531Z,79.90
2023-02-16T22:30:20.877Z,79.80
2023-02-16T22:32:52.288Z,80.50
2023-02-16T22:35:20.507Z,80.60
2023-02-16T22:37:48.846Z,80.00
2023-02-16T22:40:19.968Z,80.00
2023-02-16T22:42:48.179Z,80.10
2023-02-16T22:45:18.778Z,80.10
2023-02-16T22:47:46.994Z,80.10
2023-02-16T22:50:16.604Z,80.10
2023-02-16T22:52:44.804Z,80.10
2023-02-16T22:55:13.008Z,80.10
2023-02-16T22:57:41.437Z,80.20
2023-02-16T23:00:14.395Z,80.10
2023-02-16T23:02:42.605Z,80.20
2023-02-16T23:05:10.938Z,80.20
2023-02-16T23:07:40.536Z,80.30
2023-02-16T23:10:10.729Z,80.40
2023-02-16T23:12:39.079Z,80.40
2023-02-16T23:15:08.054Z,80.30
2023-02-16T23:17:37.249Z,80.30
2023-02-16T23:20:06.916Z,80.30
2023-02-16T23:22:35.131Z,80.40
2023-02-16T23:25:22.485Z,80.30
2023-02-16T23:27:53.126Z,80.30
2023-02-16T23:30:21.814Z,80.30
2023-02-16T23:32:50.168Z,80.30
2023-02-16T23:35:18.738Z,80.20
2023-02-16T23:37:47.789Z,80.10
2023-02-16T23:40:17.504Z,80.20
2023-02-16T23:42:45.916Z,80.30
2023-02-16T23:45:14.153Z,80.40
2023-02-16T23:47:42.370Z,80.50
2023-02-16T23:50:11.048Z,80.60
2023-02-16T23:52:40.794Z,80.60
2023-02-16T23:55:09.595Z,80.60
2023-02-16T23:57:39.197Z,80.60
